Time;durP1;ratioP1;P1;durP2;ratioP2;P2;SDS_P1;SDS_P2;PMS_P1;PMS_P2;Temp;Humidity;BMP_temperature;BMP_pressure;BME280_temperature;BME280_humidity;BME280_pressure;Samples;Min_cycle;Max_cycle;Signal;HPM_P1;HPM_P2
2023/05/06 00:02:05;;;;;;;1.48;1.38;;;;;;;;;;5075942;28;20494;-65
2023/05/06 00:04:33;;;;;;;1.88;1.20;;;;;;;;;;5076152;28;20052;-65
2023/05/06 00:07:00;;;;;;;2.17;1.30;;;;;;;;;;5075320;28;20630;-65
2023/05/06 00:09:27;;;;;;;2.50;1.55;;;;;;;;;;5077414;28;20051;-65
2023/05/06 00:11:53;;;;;;;2.10;1.38;;;;;;;;;;5075907;28;20135;-65
2023/05/06 00:14:20;;;;;;;2.63;1.30;;;;;;;;;;5075393;28;20040;-65
2023/05/06 00:16:46;;;;;;;2.17;1.17;;;;;;;;;;5075807;28;20060;-65
2023/05/06 00:19:13;;;;;;;1.52;1.25;;;;;;;;;;5075979;28;20417;-65
2023/05/06 00:21:41;;;;;;;1.85;1.25;;;;;;;;;;5076388;28;20139;-65
2023/05/06 00:24:07;;;;;;;2.25;1.15;;;;;;;;;;5076025;28;20406;-65
2023/05/06 00:26:34;;;;;;;1.30;1.20;;;;;;;;;;5077315;28;20504;-65
2023/05/06 00:29:00;;;;;;;4.15;1.50;;;;;;;;;;5077134;28;20572;-65
2023/05/06 00:31:27;;;;;;;1.30;1.20;;;;;;;;;;5074256;28;20052;-65
2023/05/06 00:33:54;;;;;;;1.60;1.50;;;;;;;;;;5076124;28;20044;-65
2023/05/06 00:36:20;;;;;;;1.30;1.20;;;;;;;;;;5075934;28;20434;-64
2023/05/06 00:38:49;;;;;;;2.17;1.40;;;;;;;;;;5075462;28;20051;-64
2023/05/06 00:41:15;;;;;;;3.35;1.60;;;;;;;;;;5075826;28;20047;-65
2023/05/06 00:43:42;;;;;;;1.73;1.30;;;;;;;;;;5075867;28;20044;-65
2023/05/06 00:46:10;;;;;;;3.42;1.50;;;;;;;;;;5075315;28;20048;-64
2023/05/06 00:48:37;;;;;;;1.80;1.35;;;;;;;;;;5075253;28;20101;-65
2023/05/06 00:51:04;;;;;;;1.45;1.30;;;;;;;;;;5075209;28;20049;-64
2023/05/06 00:53:31;;;;;;;2.00;1.80;;;;;;;;;;5074930;28;20083;-64
2023/05/06 00:55:59;;;;;;;1.70;1.50;;;;;;;;;;5074959;28;20044;-65
2023/05/06 00:58:26;;;;;;;2.50;1.40;;;;;;;;;;5074219;28;20049;-65
2023/05/06 01:00:52;;;;;;;1.75;1.45;;;;;;;;;;5075072;28;20048;-65
2023/05/06 01:03:19;;;;;;;4.43;1.40;;;;;;;;;;5074639;28;20051;-65
2023/05/06 01:05:57;;;;;;;1.35;1.25;;;;;;;;;;5074595;28;20135;-65
2023/05/06 01:08:29;;;;;;;1.48;1.38;;;;;;;;;;5074599;28;20422;-64
2023/05/06 01:11:04;;;;;;;2.67;1.40;;;;;;;;;;5074842;28;20524;-64
2023/05/06 01:13:37;;;;;;;3.45;1.45;;;;;;;;;;5074497;28;20493;-65
2023/05/06 01:16:07;;;;;;;2.33;1.45;;;;;;;;;;5074544;28;20044;-64
2023/05/06 01:18:34;;;;;;;1.80;1.50;;;;;;;;;;5074852;28;20056;-65
2023/05/06 01:21:04;;;;;;;1.67;1.40;;;;;;;;;;5074829;28;20045;-65
2023/05/06 01:23:50;;;;;;;1.63;1.52;;;;;;;;;;5074321;28;20049;-64
2023/05/06 01:26:17;;;;;;;1.70;1.60;;;;;;;;;;5075469;28;20045;-64
2023/05/06 01:28:43;;;;;;;2.97;1.77;;;;;;;;;;5073866;28;20070;-64
2023/05/06 01:31:13;;;;;;;4.50;1.70;;;;;;;;;;5074427;28;20048;-65
2023/05/06 01:33:46;;;;;;;2.78;1.50;;;;;;;;;;5073890;28;20052;-64
2023/05/06 01:36:15;;;;;;;;;;;;;;;;;;5074436;28;20127;-64
2023/05/06 01:38:47;;;;;;;2.38;1.60;;;;;;;;;;5074248;28;20400;-64
2023/05/06 01:41:16;;;;;;;2.53;1.88;;;;;;;;;;5074096;28;20048;-64
2023/05/06 01:43:44;;;;;;;4.22;2.63;;;;;;;;;;5073937;28;20474;-65
2023/05/06 01:46:15;;;;;;;3.20;1.70;;;;;;;;;;5073736;28;20048;-64
2023/05/06 01:48:42;;;;;;;2.35;1.90;;;;;;;;;;5073734;28;20048;-64
2023/05/06 01:51:09;;;;;;;3.58;1.65;;;;;;;;;;5074031;28;20070;-64
2023/05/06 01:53:36;;;;;;;2.65;1.90;;;;;;;;;;5074006;28;20436;-64
2023/05/06 01:56:04;;;;;;;3.13;1.80;;;;;;;;;;5073161;28;20409;-64
2023/05/06 01:58:31;;;;;;;2.63;2.42;;;;;;;;;;5073447;28;20052;-64
2023/05/06 02:00:57;;;;;;;2.58;1.90;;;;;;;;;;5072995;28;20044;-64
2023/05/06 02:03:24;;;;;;;3.42;1.85;;;;;;;;;;5073789;28;20056;-64
2023/05/06 02:05:51;;;;;;;2.45;1.65;;;;;;;;;;5073372;28;20130;-65
2023/05/06 02:08:17;;;;;;;3.58;1.70;;;;;;;;;;5073191;28;20051;-65
2023/05/06 02:10:44;;;;;;;2.90;1.77;;;;;;;;;;5073099;28;20060;-64
2023/05/06 02:13:12;;;;;;;2.13;1.90;;;;;;;;;;5073107;28;20051;-65
2023/05/06 02:15:38;;;;;;;3.55;2.00;;;;;;;;;;5073079;28;20040;-64
2023/05/06 02:18:05;;;;;;;3.10;2.15;;;;;;;;;;5072871;28;20055;-65
2023/05/06 02:20:31;;;;;;;2.25;1.90;;;;;;;;;;5072132;28;20046;-64
2023/05/06 02:22:58;;;;;;;4.22;2.00;;;;;;;;;;5073134;28;20044;-64
2023/05/06 02:25:24;;;;;;;3.65;2.13;;;;;;;;;;5073130;28;20406;-65
2023/05/06 02:27:51;;;;;;;3.33;2.15;;;;;;;;;;5072781;28;20391;-65
2023/05/06 02:30:19;;;;;;;2.38;1.90;;;;;;;;;;5072778;28;20059;-64
2023/05/06 02:32:45;;;;;;;2.70;2.10;;;;;;;;;;5072674;28;20049;-65
2023/05/06 02:35:12;;;;;;;4.32;1.95;;;;;;;;;;5072834;28;20131;-64
2023/05/06 02:37:39;;;;;;;2.88;2.08;;;;;;;;;;5072567;28;20608;-65
2023/05/06 02:40:07;;;;;;;2.85;1.88;;;;;;;;;;5073003;28;20070;-64
2023/05/06 02:42:34;;;;;;;2.35;2.15;;;;;;;;;;5072669;28;20056;-65
2023/05/06 02:45:01;;;;;;;2.22;1.98;;;;;;;;;;5072861;28;20048;-64
2023/05/06 02:47:29;;;;;;;2.53;2.00;;;;;;;;;;5072373;28;20129;-64
2023/05/06 02:49:55;;;;;;;6.80;2.17;;;;;;;;;;5072685;28;20041;-64
2023/05/06 02:52:22;;;;;;;3.45;2.22;;;;;;;;;;5071129;28;20044;-66
2023/05/06 02:54:48;;;;;;;2.38;1.90;;;;;;;;;;5071480;28;20409;-64
2023/05/06 02:57:15;;;;;;;2.10;1.90;;;;;;;;;;5071287;28;20045;-64
2023/05/06 02:59:41;;;;;;;2.40;2.20;;;;;;;;;;5072444;28;20055;-65
2023/05/06 03:02:08;;;;;;;2.45;1.92;;;;;;;;;;5072227;28;20041;-64
2023/05/06 03:04:36;;;;;;;3.17;2.22;;;;;;;;;;5072227;28;20049;-65
2023/05/06 03:07:03;;;;;;;5.72;2.45;;;;;;;;;;5071100;28;20044;-65
2023/05/06 03:09:29;;;;;;;2.95;2.47;;;;;;;;;;5071475;28;20044;-63
2023/05/06 03:11:56;;;;;;;3.97;2.50;;;;;;;;;;5070928;28;20091;-64
2023/05/06 03:14:23;;;;;;;3.30;2.65;;;;;;;;;;5071409;28;20074;-64
2023/05/06 03:16:49;;;;;;;3.97;2.50;;;;;;;;;;5071796;28;20041;-64
2023/05/06 03:19:16;;;;;;;4.18;3.28;;;;;;;;;;5071407;28;20050;-64
2023/05/06 03:21:44;;;;;;;3.22;2.35;;;;;;;;;;5071465;28;20401;-64
2023/05/06 03:24:10;;;;;;;3.25;2.17;;;;;;;;;;5070826;28;20063;-64
2023/05/06 03:26:37;;;;;;;3.83;2.28;;;;;;;;;;5059172;28;20052;-64
2023/05/06 03:29:04;;;;;;;4.35;2.35;;;;;;;;;;5050526;28;20053;-64
2023/05/06 03:31:30;;;;;;;2.78;2.20;;;;;;;;;;5051368;28;20055;-64
2023/05/06 03:33:57;;;;;;;3.10;2.50;;;;;;;;;;5050988;28;20048;-64
2023/05/06 03:36:24;;;;;;;2.65;2.25;;;;;;;;;;5051035;28;20045;-64
2023/05/06 03:38:51;;;;;;;3.22;2.15;;;;;;;;;;5050214;28;20051;-64
2023/05/06 03:41:18;;;;;;;3.22;2.20;;;;;;;;;;5051267;28;20048;-64
2023/05/06 03:43:45;;;;;;;2.60;2.22;;;;;;;;;;5051319;28;20495;-64
2023/05/06 03:46:11;;;;;;;2.88;2.50;;;;;;;;;;5051249;28;20045;-64
2023/05/06 03:48:38;;;;;;;2.70;2.28;;;;;;;;;;5050678;28;20045;-65
2023/05/06 03:51:05;;;;;;;3.30;2.53;;;;;;;;;;5050955;28;20056;-64
2023/05/06 03:53:31;;;;;;;2.72;2.20;;;;;;;;;;5050340;28;20056;-64
2023/05/06 03:56:00;;;;;;;2.83;2.22;;;;;;;;;;5051095;28;20110;-64
2023/05/06 03:58:27;;;;;;;2.65;2.28;;;;;;;;;;5062358;28;20072;-64
2023/05/06 04:00:53;;;;;;;4.00;2.10;;;;;;;;;;5070850;28;20040;-64
2023/05/06 04:03:20;;;;;;;2.55;2.20;;;;;;;;;;5071430;28;20422;-64
2023/05/06 04:05:49;;;;;;;3.88;2.30;;;;;;;;;;5073298;28;20623;-64
2023/05/06 04:08:16;;;;;;;3.17;2.25;;;;;;;;;;5074848;28;20052;-64
2023/05/06 04:10:43;;;;;;;5.20;2.30;;;;;;;;;;5074904;28;20465;-64
2023/05/06 04:13:10;;;;;;;2.85;2.35;;;;;;;;;;5074810;28;20051;-65
2023/05/06 04:15:37;;;;;;;4.47;2.53;;;;;;;;;;5074073;28;20044;-63
2023/05/06 04:18:06;;;;;;;3.53;2.30;;;;;;;;;;5073807;28;20138;-64
2023/05/06 04:20:32;;;;;;;3.30;2.22;;;;;;;;;;5073987;28;20049;-64
2023/05/06 04:22:59;;;;;;;2.95;2.35;;;;;;;;;;5074469;28;20135;-65
2023/05/06 04:25:26;;;;;;;4.35;2.63;;;;;;;;;;5074508;28;20063;-64
2023/05/06 04:27:53;;;;;;;2.97;2.10;;;;;;;;;;5074002;28;20071;-64
2023/05/06 04:30:21;;;;;;;2.45;2.25;;;;;;;;;;5073814;28;20048;-64
2023/05/06 04:32:47;;;;;;;2.30;2.10;;;;;;;;;;5073950;28;20486;-64
2023/05/06 04:35:15;;;;;;;2.67;2.45;;;;;;;;;;5074010;28;20054;-64
2023/05/06 04:37:42;;;;;;;2.70;2.25;;;;;;;;;;5074260;28;20098;-64
2023/05/06 04:40:10;;;;;;;2.63;2.22;;;;;;;;;;5073232;28;20045;-64
2023/05/06 04:42:36;;;;;;;4.28;1.95;;;;;;;;;;5074094;28;20044;-65
2023/05/06 04:45:04;;;;;;;2.75;2.25;;;;;;;;;;5073837;28;20056;-64
2023/05/06 04:47:32;;;;;;;2.60;2.15;;;;;;;;;;5071858;28;20055;-64
2023/05/06 04:49:58;;;;;;;3.20;2.40;;;;;;;;;;5073876;28;20049;-65
2023/05/06 04:52:25;;;;;;;5.40;2.40;;;;;;;;;;5074221;28;20056;-64
2023/05/06 04:54:52;;;;;;;3.55;2.35;;;;;;;;;;5074374;28;20066;-64
2023/05/06 04:57:18;;;;;;;2.30;2.13;;;;;;;;;;5073995;28;20049;-64
2023/05/06 04:59:45;;;;;;;3.42;2.45;;;;;;;;;;5088582;22;20041;-67
2023/05/06 05:02:11;;;;;;;3.78;2.33;;;;;;;;;;5092260;28;20477;-67
2023/05/06 05:04:39;;;;;;;2.65;2.38;;;;;;;;;;5092826;28;20412;-67
2023/05/06 05:07:09;;;;;;;2.70;2.35;;;;;;;;;;5091958;28;20519;-67
2023/05/06 05:09:35;;;;;;;2.75;2.30;;;;;;;;;;5092664;28;20051;-67
2023/05/06 05:12:02;;;;;;;3.45;2.30;;;;;;;;;;5092465;28;20048;-67
2023/05/06 05:14:29;;;;;;;2.83;2.40;;;;;;;;;;5092368;28;20130;-67
2023/05/06 05:16:56;;;;;;;2.85;2.28;;;;;;;;;;5091257;28;20334;-67
2023/05/06 05:19:23;;;;;;;3.13;2.53;;;;;;;;;;5092491;28;20130;-67
2023/05/06 05:21:50;;;;;;;3.17;2.40;;;;;;;;;;5091953;28;20047;-67
2023/05/06 05:24:17;;;;;;;3.40;2.40;;;;;;;;;;5091960;28;20048;-67
2023/05/06 05:26:44;;;;;;;2.83;2.45;;;;;;;;;;5092013;28;20485;-67
2023/05/06 05:29:11;;;;;;;4.40;2.80;;;;;;;;;;5091579;28;20086;-68
2023/05/06 05:31:39;;;;;;;2.55;2.35;;;;;;;;;;5091743;28;20052;-67
2023/05/06 05:34:06;;;;;;;3.03;2.38;;;;;;;;;;5091580;28;20481;-67
2023/05/06 05:36:33;;;;;;;3.25;2.63;;;;;;;;;;5091766;28;20048;-67
2023/05/06 05:39:01;;;;;;;4.70;2.63;;;;;;;;;;5091621;28;20071;-67
2023/05/06 05:41:27;;;;;;;2.75;2.40;;;;;;;;;;5091581;28;20071;-68
2023/05/06 05:43:54;;;;;;;6.90;2.83;;;;;;;;;;5091125;28;20505;-67
2023/05/06 05:46:23;;;;;;;3.80;2.30;;;;;;;;;;5092017;28;20040;-68
2023/05/06 05:48:50;;;;;;;4.68;2.50;;;;;;;;;;5091480;28;20048;-67
2023/05/06 05:51:16;;;;;;;4.95;2.65;;;;;;;;;;5091376;28;20051;-68
2023/05/06 05:53:43;;;;;;;4.05;2.50;;;;;;;;;;5091391;28;20044;-67
2023/05/06 05:56:11;;;;;;;3.40;2.22;;;;;;;;;;5091480;28;20044;-67
2023/05/06 05:58:37;;;;;;;4.07;2.50;;;;;;;;;;5091300;28;20409;-68
2023/05/06 06:01:04;;;;;;;5.25;2.30;;;;;;;;;;5091615;28;20050;-68
2023/05/06 06:03:30;;;;;;;3.63;2.20;;;;;;;;;;5091266;28;20524;-68
2023/05/06 06:05:57;;;;;;;5.07;3.35;;;;;;;;;;5091212;28;20045;-67
2023/05/06 06:08:24;;;;;;;5.38;3.63;;;;;;;;;;5091020;28;20048;-67
2023/05/06 06:10:50;;;;;;;4.57;3.72;;;;;;;;;;5091483;28;20505;-68
2023/05/06 06:13:18;;;;;;;4.28;2.90;;;;;;;;;;5091075;28;20523;-68
2023/05/06 06:15:45;;;;;;;4.20;3.08;;;;;;;;;;5091034;28;20169;-68
2023/05/06 06:18:12;;;;;;;3.67;2.80;;;;;;;;;;5091015;28;20050;-67
2023/05/06 06:20:38;;;;;;;3.80;2.50;;;;;;;;;;5090529;28;20040;-67
2023/05/06 06:23:05;;;;;;;3.65;2.47;;;;;;;;;;5090684;28;20074;-68
2023/05/06 06:25:32;;;;;;;3.20;2.63;;;;;;;;;;5090377;28;20073;-68
2023/05/06 06:27:58;;;;;;;3.45;2.63;;;;;;;;;;5090271;28;20159;-67
2023/05/06 06:30:27;;;;;;;5.53;3.13;;;;;;;;;;5090416;28;20044;-67
2023/05/06 06:32:55;;;;;;;2.88;2.33;;;;;;;;;;5090545;28;20131;-68
2023/05/06 06:35:22;;;;;;;2.72;2.35;;;;;;;;;;5090516;28;20043;-72
2023/05/06 06:37:49;;;;;;;2.88;2.00;;;;;;;;;;5090205;28;20127;-71
2023/05/06 06:40:16;;;;;;;3.25;2.10;;;;;;;;;;5089974;28;20054;-72
2023/05/06 06:42:42;;;;;;;2.85;2.25;;;;;;;;;;5090554;28;20044;-71
2023/05/06 06:45:14;;;;;;;3.65;2.15;;;;;;;;;;5090143;28;20417;-72
2023/05/06 06:47:42;;;;;;;2.83;2.15;;;;;;;;;;5090240;28;20071;-72
2023/05/06 06:50:10;;;;;;;4.38;2.78;;;;;;;;;;5089901;28;20135;-72
2023/05/06 06:52:36;;;;;;;4.53;2.28;;;;;;;;;;5090405;28;20087;-72
2023/05/06 06:55:03;;;;;;;4.72;2.00;;;;;;;;;;5090436;28;20051;-72
2023/05/06 06:57:30;;;;;;;3.17;1.95;;;;;;;;;;5089980;28;20261;-72
2023/05/06 06:59:56;;;;;;;2.40;2.20;;;;;;;;;;5089752;28;20139;-71
2023/05/06 07:02:23;;;;;;;3.42;2.33;;;;;;;;;;5090237;28;20048;-72
2023/05/06 07:04:51;;;;;;;2.10;1.90;;;;;;;;;;5090341;28;20044;-72
2023/05/06 07:07:17;;;;;;;3.40;1.85;;;;;;;;;;5089513;28;20134;-72
2023/05/06 07:09:44;;;;;;;2.15;1.80;;;;;;;;;;5090056;28;20416;-72
2023/05/06 07:12:12;;;;;;;3.25;2.00;;;;;;;;;;5089861;28;20412;-72
2023/05/06 07:14:39;;;;;;;3.15;2.13;;;;;;;;;;5090027;28;20044;-72
2023/05/06 07:17:05;;;;;;;5.72;2.15;;;;;;;;;;5089445;28;20050;-72
2023/05/06 07:19:32;;;;;;;4.53;2.03;;;;;;;;;;5090217;28;20040;-72
2023/05/06 07:22:01;;;;;;;4.82;2.20;;;;;;;;;;5089798;28;20055;-72
2023/05/06 07:24:28;;;;;;;2.97;1.95;;;;;;;;;;5090024;28;20052;-72
2023/05/06 07:26:55;;;;;;;5.43;2.38;;;;;;;;;;5089381;28;20060;-72
2023/05/06 07:29:22;;;;;;;3.22;2.00;;;;;;;;;;5089900;28;20051;-72
2023/05/06 07:31:48;;;;;;;4.10;2.08;;;;;;;;;;5089479;28;20421;-72
2023/05/06 07:34:15;;;;;;;5.80;2.28;;;;;;;;;;5089786;28;20044;-72
2023/05/06 07:36:42;;;;;;;5.35;2.05;;;;;;;;;;5089818;28;20048;-72
2023/05/06 07:39:11;;;;;;;2.95;1.85;;;;;;;;;;5089843;28;20051;-72
2023/05/06 07:41:37;;;;;;;3.40;1.90;;;;;;;;;;5093525;28;20071;-72
2023/05/06 07:44:04;;;;;;;3.97;2.28;;;;;;;;;;5094205;28;20043;-72
2023/05/06 07:46:31;;;;;;;3.72;2.25;;;;;;;;;;5093585;28;20052;-72
2023/05/06 07:49:00;;;;;;;2.38;2.15;;;;;;;;;;5093525;28;20133;-72
2023/05/06 07:51:27;;;;;;;3.33;2.20;;;;;;;;;;5093681;28;20071;-72
2023/05/06 07:53:53;;;;;;;3.72;2.13;;;;;;;;;;5093586;28;20375;-72
2023/05/06 07:56:21;;;;;;;3.22;2.20;;;;;;;;;;5093744;28;20044;-72
2023/05/06 07:58:48;;;;;;;3.45;2.42;;;;;;;;;;5093303;28;20537;-72
2023/05/06 08:01:15;;;;;;;3.10;2.00;;;;;;;;;;5093375;28;20044;-72
2023/05/06 08:03:42;;;;;;;2.97;2.10;;;;;;;;;;5093131;28;20056;-72
2023/05/06 08:06:10;;;;;;;3.08;2.00;;;;;;;;;;5093930;28;20043;-72
2023/05/06 08:08:37;;;;;;;4.05;2.08;;;;;;;;;;5093355;28;20052;-72
2023/05/06 08:11:04;;;;;;;2.47;1.85;;;;;;;;;;5093716;28;20040;-72
2023/05/06 08:13:32;;;;;;;3.97;2.50;;;;;;;;;;5093179;28;20046;-72
2023/05/06 08:16:01;;;;;;;3.78;2.13;;;;;;;;;;5093085;28;20051;-72
2023/05/06 08:18:27;;;;;;;2.75;2.10;;;;;;;;;;5092522;28;20048;-72
2023/05/06 08:20:54;;;;;;;3.33;2.05;;;;;;;;;;5093214;28;20044;-72
2023/05/06 08:23:20;;;;;;;2.60;2.05;;;;;;;;;;5092655;28;20051;-71
2023/05/06 08:25:47;;;;;;;4.18;1.85;;;;;;;;;;5093046;28;20044;-71
2023/05/06 08:28:14;;;;;;;4.57;2.13;;;;;;;;;;5092564;28;20040;-72
2023/05/06 08:30:42;;;;;;;2.50;1.90;;;;;;;;;;5092667;28;20048;-71
2023/05/06 08:33:08;;;;;;;2.83;1.70;;;;;;;;;;5092398;28;20059;-71
2023/05/06 08:35:35;;;;;;;9.93;2.10;;;;;;;;;;5092848;28;20040;-71
2023/05/06 08:38:01;;;;;;;4.88;1.80;;;;;;;;;;5092706;28;20371;-72
2023/05/06 08:40:32;;;;;;;3.53;1.92;;;;;;;;;;5093171;28;20406;-72
2023/05/06 08:42:59;;;;;;;2.60;1.52;;;;;;;;;;5092680;28;20101;-71
2023/05/06 08:45:26;;;;;;;2.50;1.70;;;;;;;;;;5092566;28;20060;-71
2023/05/06 08:48:03;;;;;;;2.25;1.65;;;;;;;;;;5092964;28;20106;-71
2023/05/06 08:50:29;;;;;;;3.78;1.60;;;;;;;;;;5092401;28;20048;-71
2023/05/06 08:52:56;;;;;;;1.95;1.50;;;;;;;;;;5091860;28;20094;-71
2023/05/06 08:55:26;;;;;;;3.08;1.50;;;;;;;;;;5092200;28;20048;-71
2023/05/06 08:57:55;;;;;;;4.65;2.10;;;;;;;;;;5095424;28;20054;-71
2023/05/06 09:00:22;;;;;;;9.50;3.00;;;;;;;;;;5093875;28;20071;-71
2023/05/06 09:02:48;;;;;;;2.85;2.05;;;;;;;;;;5092328;28;20040;-71
2023/05/06 09:05:16;;;;;;;2.40;1.42;;;;;;;;;;5092127;28;20040;-71
2023/05/06 09:07:42;;;;;;;2.13;1.45;;;;;;;;;;5092167;28;20040;-71
2023/05/06 09:10:13;;;;;;;3.53;1.50;;;;;;;;;;5091813;28;20078;-71
2023/05/06 09:12:40;;;;;;;2.47;1.70;;;;;;;;;;5092453;28;20044;-71
2023/05/06 09:15:09;;;;;;;3.22;1.50;;;;;;;;;;5092076;28;20516;-71
2023/05/06 09:17:36;;;;;;;2.20;1.30;;;;;;;;;;5092060;28;20062;-70
2023/05/06 09:20:05;;;;;;;2.65;1.55;;;;;;;;;;5091969;28;20040;-71
2023/05/06 09:22:33;;;;;;;2.33;1.20;;;;;;;;;;5091918;28;20048;-70
2023/05/06 09:25:00;;;;;;;2.17;1.13;;;;;;;;;;5091811;28;20401;-72
2023/05/06 09:27:28;;;;;;;2.85;1.10;;;;;;;;;;5091614;28;20048;-72
2023/05/06 09:30:00;;;;;;;9.50;2.17;;;;;;;;;;5091575;28;20051;-70
2023/05/06 09:32:27;;;;;;;2.30;1.30;;;;;;;;;;5092280;28;20047;-70
2023/05/06 09:34:55;;;;;;;3.63;2.00;;;;;;;;;;5092055;28;20094;-70
2023/05/06 09:37:21;;;;;;;2.92;1.90;;;;;;;;;;5091927;28;20040;-70
2023/05/06 09:39:54;;;;;;;2.67;1.35;;;;;;;;;;5091785;28;20063;-70
2023/05/06 09:42:21;;;;;;;;;;;;;;;;;;5092531;28;20465;-70
2023/05/06 09:44:48;;;;;;;2.53;1.30;;;;;;;;;;5092576;28;19920;-71
2023/05/06 09:47:18;;;;;;;2.05;1.13;;;;;;;;;;5091977;28;20050;-70
2023/05/06 09:49:44;;;;;;;2.65;1.45;;;;;;;;;;5091523;28;20423;-70
2023/05/06 09:52:14;;;;;;;2.03;1.30;;;;;;;;;;5091396;28;20040;-70
2023/05/06 09:54:41;;;;;;;2.60;1.60;;;;;;;;;;5091190;28;20048;-70
2023/05/06 09:57:12;;;;;;;2.28;1.60;;;;;;;;;;5090905;28;20132;-70
2023/05/06 09:59:40;;;;;;;4.65;2.00;;;;;;;;;;5091251;28;20101;-70
2023/05/06 10:02:08;;;;;;;2.88;1.55;;;;;;;;;;5090835;28;20044;-70
2023/05/06 10:04:40;;;;;;;2.13;1.70;;;;;;;;;;5091198;28;20050;-71
2023/05/06 10:07:10;;;;;;;2.03;1.35;;;;;;;;;;5091469;28;20500;-70
2023/05/06 10:09:42;;;;;;;3.15;1.38;;;;;;;;;;5091679;28;20098;-70
2023/05/06 10:12:10;;;;;;;1.77;1.05;;;;;;;;;;5090907;28;20048;-71
2023/05/06 10:14:37;;;;;;;2.70;1.33;;;;;;;;;;5090865;28;20136;-70
2023/05/06 10:17:08;;;;;;;2.38;1.50;;;;;;;;;;5090364;28;20068;-70
2023/05/06 10:19:35;;;;;;;3.75;1.40;;;;;;;;;;5090942;28;20402;-70
2023/05/06 10:22:08;;;;;;;1.60;1.30;;;;;;;;;;5091105;28;20044;-70
2023/05/06 10:24:45;;;;;;;3.30;1.02;;;;;;;;;;5091398;28;20405;-70
2023/05/06 10:27:17;;;;;;;1.75;1.20;;;;;;;;;;5090494;28;20406;-70
2023/05/06 10:29:43;;;;;;;;;;;;;;;;;;5091163;28;20046;-71
2023/05/06 10:32:12;;;;;;;1.05;0.93;;;;;;;;;;5090557;28;19971;-70
2023/05/06 10:34:47;;;;;;;1.38;1.00;;;;;;;;;;5090675;28;20094;-70
2023/05/06 10:37:14;;;;;;;2.42;0.80;;;;;;;;;;5089825;28;20503;-70
2023/05/06 10:39:42;;;;;;;3.03;1.00;;;;;;;;;;5090521;28;20044;-70
2023/05/06 10:42:10;;;;;;;0.80;0.80;;;;;;;;;;5090210;28;20040;-70
2023/05/06 10:45:00;;;;;;;1.00;0.80;;;;;;;;;;5090397;28;20114;-70
2023/05/06 10:47:26;;;;;;;1.90;0.90;;;;;;;;;;5089901;28;20052;-71
2023/05/06 10:50:18;;;;;;;2.70;1.10;;;;;;;;;;5090156;28;20412;-70
2023/05/06 10:52:46;;;;;;;2.25;0.90;;;;;;;;;;5090442;28;20474;-70
2023/05/06 10:55:26;;;;;;;2.88;1.00;;;;;;;;;;5090500;28;20044;-70
2023/05/06 10:57:55;;;;;;;1.67;0.70;;;;;;;;;;5089727;28;20044;-70
2023/05/06 11:00:23;;;;;;;2.58;1.00;;;;;;;;;;5103046;22;20036;-66
2023/05/06 11:02:57;;;;;;;2.92;1.00;;;;;;;;;;5090423;28;20620;-67
2023/05/06 11:05:24;;;;;;;2.13;1.10;;;;;;;;;;5090479;28;20040;-66
2023/05/06 11:07:51;;;;;;;1.60;0.82;;;;;;;;;;5089740;28;20048;-65
2023/05/06 11:10:32;;;;;;;0.93;0.80;;;;;;;;;;5090277;28;20044;-66
2023/05/06 11:12:59;;;;;;;1.00;0.90;;;;;;;;;;5089494;28;20093;-65
2023/05/06 11:15:38;;;;;;;1.95;0.95;;;;;;;;;;5089612;28;20044;-67
2023/05/06 11:18:35;;;;;;;1.48;0.93;;;;;;;;;;5089847;28;20373;-66
2023/05/06 11:21:38;;;;;;;1.73;0.90;;;;;;;;;;5088692;28;20054;-67
2023/05/06 11:24:12;;;;;;;1.23;0.90;;;;;;;;;;5089977;28;20040;-66
2023/05/06 11:26:42;;;;;;;2.53;0.77;;;;;;;;;;5090063;28;20052;-66
2023/05/06 11:29:10;;;;;;;0.90;0.80;;;;;;;;;;5089837;28;20109;-65
2023/05/06 11:31:42;;;;;;;1.10;1.00;;;;;;;;;;5090551;28;20044;-67
2023/05/06 11:34:11;;;;;;;1.80;1.00;;;;;;;;;;5090000;28;20048;-65
2023/05/06 11:36:46;;;;;;;2.75;1.00;;;;;;;;;;5089977;28;20048;-67
2023/05/06 11:39:13;;;;;;;1.00;0.85;;;;;;;;;;5089455;28;20489;-66
2023/05/06 11:41:40;;;;;;;1.42;1.10;;;;;;;;;;5089970;28;20052;-66
2023/05/06 11:44:08;;;;;;;2.53;1.02;;;;;;;;;;5089397;28;20068;-66
2023/05/06 11:46:35;;;;;;;1.55;0.90;;;;;;;;;;5090270;28;20052;-67
2023/05/06 11:49:03;;;;;;;2.50;1.10;;;;;;;;;;5089192;28;20132;-67
2023/05/06 11:51:30;;;;;;;2.05;0.90;;;;;;;;;;5090132;28;20040;-66
2023/05/06 11:54:08;;;;;;;1.60;1.00;;;;;;;;;;5089952;28;20056;-66
2023/05/06 11:56:48;;;;;;;2.92;1.00;;;;;;;;;;5089837;28;20071;-67
2023/05/06 11:59:15;;;;;;;1.60;1.00;;;;;;;;;;5089799;28;20050;-66
2023/05/06 12:01:43;;;;;;;2.08;0.95;;;;;;;;;;5089806;28;20155;-67
2023/05/06 12:04:11;;;;;;;1.42;1.33;;;;;;;;;;5089599;28;20044;-67
2023/05/06 12:06:39;;;;;;;2.00;1.00;;;;;;;;;;5089690;28;20044;-66
2023/05/06 12:09:07;;;;;;;1.40;0.80;;;;;;;;;;5089526;28;20051;-66
2023/05/06 12:11:35;;;;;;;1.02;0.93;;;;;;;;;;5089431;28;20067;-67
2023/05/06 12:14:02;;;;;;;1.98;1.15;;;;;;;;;;5089905;28;20316;-67
2023/05/06 12:16:29;;;;;;;2.55;0.90;;;;;;;;;;5089889;28;20048;-67
2023/05/06 12:18:56;;;;;;;2.20;1.00;;;;;;;;;;5089583;28;20079;-67
2023/05/06 12:21:24;;;;;;;3.15;0.95;;;;;;;;;;5089641;28;20051;-67
2023/05/06 12:23:52;;;;;;;0.98;0.82;;;;;;;;;;5089506;28;20116;-66
2023/05/06 12:26:19;;;;;;;1.92;1.20;;;;;;;;;;5089821;28;20546;-66
2023/05/06 12:28:46;;;;;;;1.33;1.00;;;;;;;;;;5093390;28;20079;-66
2023/05/06 12:31:20;;;;;;;1.95;1.00;;;;;;;;;;5093280;28;20048;-66
2023/05/06 12:33:48;;;;;;;3.20;0.93;;;;;;;;;;5093299;28;20489;-66
2023/05/06 12:36:14;;;;;;;1.25;1.00;;;;;;;;;;5092937;28;20048;-68
2023/05/06 12:38:51;;;;;;;2.25;0.98;;;;;;;;;;5093034;28;20051;-67
2023/05/06 12:41:18;;;;;;;1.20;1.00;;;;;;;;;;5093255;28;20048;-67
2023/05/06 12:43:45;;;;;;;3.50;0.90;;;;;;;;;;5092849;28;20075;-66
2023/05/06 12:46:12;;;;;;;2.17;1.00;;;;;;;;;;5092933;28;20414;-67
2023/05/06 12:48:38;;;;;;;3.03;1.10;;;;;;;;;;5092725;28;20054;-66
2023/05/06 12:51:18;;;;;;;2.05;1.00;;;;;;;;;;5092605;28;20811;-66
2023/05/06 12:53:45;;;;;;;1.00;0.80;;;;;;;;;;5093091;28;20039;-66
2023/05/06 12:56:13;;;;;;;1.45;0.90;;;;;;;;;;5092807;28;20086;-66
2023/05/06 12:58:39;;;;;;;1.25;0.80;;;;;;;;;;5092677;28;20051;-66
2023/05/06 13:01:06;;;;;;;2.50;0.90;;;;;;;;;;5092929;28;20464;-67
2023/05/06 13:03:33;;;;;;;1.63;1.30;;;;;;;;;;5092916;28;20409;-66
2023/05/06 13:06:00;;;;;;;3.22;1.00;;;;;;;;;;5092474;28;20105;-67
2023/05/06 13:08:26;;;;;;;1.25;0.90;;;;;;;;;;5092325;28;20044;-66
2023/05/06 13:10:53;;;;;;;2.05;0.90;;;;;;;;;;5092920;28;20046;-68
2023/05/06 13:13:20;;;;;;;1.17;0.80;;;;;;;;;;5092407;28;20044;-67
2023/05/06 13:15:48;;;;;;;1.35;0.90;;;;;;;;;;5092368;28;20052;-68
2023/05/06 13:18:14;;;;;;;1.42;0.93;;;;;;;;;;5092195;28;20044;-66
2023/05/06 13:20:41;;;;;;;1.10;0.80;;;;;;;;;;5092404;28;20048;-68
2023/05/06 13:23:07;;;;;;;2.88;0.95;;;;;;;;;;5092050;28;20074;-66
2023/05/06 13:25:37;;;;;;;1.38;0.80;;;;;;;;;;5092707;28;20153;-67
2023/05/06 13:28:04;;;;;;;1.33;0.90;;;;;;;;;;5091845;28;20083;-67
2023/05/06 13:30:32;;;;;;;1.05;0.80;;;;;;;;;;5092029;28;20050;-66
2023/05/06 13:32:58;;;;;;;2.42;1.00;;;;;;;;;;5091863;28;20482;-66
2023/05/06 13:35:25;;;;;;;1.75;0.93;;;;;;;;;;5092099;28;20052;-66
2023/05/06 13:37:51;;;;;;;2.33;0.80;;;;;;;;;;5091233;28;20047;-67
2023/05/06 13:40:18;;;;;;;1.40;0.90;;;;;;;;;;5091714;28;20044;-67
2023/05/06 13:42:45;;;;;;;1.98;0.77;;;;;;;;;;5092172;28;20054;-67
2023/05/06 13:45:11;;;;;;;1.83;0.75;;;;;;;;;;5091830;28;20393;-66
2023/05/06 13:47:41;;;;;;;1.20;0.85;;;;;;;;;;5091925;28;20051;-68
2023/05/06 13:50:08;;;;;;;1.83;0.90;;;;;;;;;;5091860;28;20599;-67
2023/05/06 13:52:34;;;;;;;1.30;1.08;;;;;;;;;;5092013;28;20047;-68
2023/05/06 13:55:01;;;;;;;1.50;0.80;;;;;;;;;;5091464;28;20151;-67
2023/05/06 13:57:27;;;;;;;2.33;0.90;;;;;;;;;;5091279;28;20051;-67
2023/05/06 13:59:54;;;;;;;2.30;0.90;;;;;;;;;;5091530;28;20040;-67
2023/05/06 14:02:20;;;;;;;1.90;0.90;;;;;;;;;;5091740;28;20047;-67
2023/05/06 14:04:48;;;;;;;1.27;1.00;;;;;;;;;;5091124;28;20066;-67
2023/05/06 14:07:15;;;;;;;1.58;1.00;;;;;;;;;;5091197;28;20406;-67
2023/05/06 14:09:42;;;;;;;1.55;0.88;;;;;;;;;;5090926;28;20097;-67
2023/05/06 14:12:08;;;;;;;1.23;0.90;;;;;;;;;;5091896;28;20048;-66
2023/05/06 14:14:35;;;;;;;1.33;0.85;;;;;;;;;;5091423;28;20481;-67
2023/05/06 14:17:01;;;;;;;1.60;0.80;;;;;;;;;;5090952;28;20052;-67
2023/05/06 14:19:28;;;;;;;0.90;0.70;;;;;;;;;;5090937;28;20131;-67
2023/05/06 14:21:57;;;;;;;3.17;0.82;;;;;;;;;;5091441;28;20089;-66
2023/05/06 14:24:23;;;;;;;1.70;1.00;;;;;;;;;;5090592;28;20070;-66
2023/05/06 14:26:50;;;;;;;2.33;1.20;;;;;;;;;;5090735;28;20052;-67
2023/05/06 14:29:16;;;;;;;0.85;0.77;;;;;;;;;;5091021;28;20044;-66
2023/05/06 14:31:43;;;;;;;3.53;1.48;;;;;;;;;;5091405;28;20043;-67
2023/05/06 14:34:10;;;;;;;1.90;1.23;;;;;;;;;;5090653;28;20425;-67
2023/05/06 14:36:37;;;;;;;3.00;1.02;;;;;;;;;;5090966;28;20410;-66
2023/05/06 14:39:04;;;;;;;1.63;1.00;;;;;;;;;;5090461;28;20055;-67
2023/05/06 14:41:31;;;;;;;2.03;0.98;;;;;;;;;;5090995;28;20135;-66
2023/05/06 14:43:58;;;;;;;1.88;0.98;;;;;;;;;;5090457;28;20130;-67
2023/05/06 14:46:24;;;;;;;2.13;0.90;;;;;;;;;;5090888;28;20044;-67
2023/05/06 14:48:51;;;;;;;1.65;0.80;;;;;;;;;;5090131;28;20055;-65